Time;durP1;ratioP1;P1;durP2;ratioP2;P2;SDS_P1;SDS_P2;PMS_P1;PMS_P2;Temp;Humidity;BMP_temperature;BMP_pressure;BME280_temperature;BME280_humidity;BME280_pressure;Samples;Min_cycle;Max_cycle;Signal;HPM_P1;HPM_P2
2022/03/31 00:00:34;;;;;;;;;;;7.70;74.00;;;6.59;69.80;95018.34;4239020;33;19902;-81
2022/03/31 00:03:05;;;;;;;;;;;7.70;74.20;;;6.60;69.96;95027.31;4239342;33;19909;-81
2022/03/31 00:05:35;;;;;;;;;;;7.70;74.40;;;6.60;69.85;95032.75;4239449;33;20130;-82
2022/03/31 00:08:06;;;;;;;;;;;7.70;74.20;;;6.59;69.79;95026.50;4239143;33;19902;-81
2022/03/31 00:10:35;;;;;;;;;;;7.70;74.10;;;6.58;70.20;95013.19;4239759;33;20369;-82
2022/03/31 00:13:05;;;;;;;;;;;7.70;74.10;;;6.59;70.06;95006.66;4253468;33;19989;-81
2022/03/31 00:15:34;;;;;;;;;;;7.70;74.10;;;6.59;69.61;95009.38;4268473;33;19902;-81
2022/03/31 00:18:04;;;;;;;;;;;7.70;73.90;;;6.58;69.31;95005.81;4256836;33;19925;-82
2022/03/31 00:20:34;;;;;;;;;;;7.70;73.90;;;6.59;69.63;95002.03;4238013;33;20173;-82
2022/03/31 00:23:03;;;;;;;;;;;7.70;73.80;;;6.58;69.55;94994.94;4225945;33;19901;-82
2022/03/31 00:25:32;;;;;;;;;;;7.70;74.00;;;6.59;69.91;94974.03;4214411;33;19909;-82
2022/03/31 00:28:03;;;;;;;;;;;7.70;74.00;;;6.59;69.74;94971.31;4237685;33;19909;-82
2022/03/31 00:30:32;;;;;;;;;;;7.70;74.00;;;6.60;69.79;94962.88;4238109;33;20012;-82
2022/03/31 00:33:01;;;;;;;;;;;7.70;73.90;;;6.57;69.92;94959.88;4237815;33;19909;-82
2022/03/31 00:35:30;;;;;;;;;;;7.70;74.10;;;6.60;70.06;94956.63;4214404;33;20159;-82
2022/03/31 00:38:00;;;;;;;;;;;7.70;74.10;;;6.58;69.99;94954.16;4237270;33;20186;-81
2022/03/31 00:40:29;;;;;;;;;;;7.70;74.10;;;6.59;69.84;94949.56;4214265;33;20072;-82
2022/03/31 00:42:58;;;;;;;;;;;7.70;73.90;;;6.58;69.74;94953.38;4237674;33;19909;-82
2022/03/31 00:45:27;;;;;;;;;;;7.70;73.90;;;6.59;69.82;94955.00;4261824;33;20221;-82
2022/03/31 00:47:57;;;;;;;;;;;7.70;74.10;;;6.58;69.81;94948.72;4213854;33;20039;-81
2022/03/31 00:50:26;;;;;;;;;;;7.70;73.90;;;6.58;69.76;94953.38;4237735;33;19902;-82
2022/03/31 00:52:55;;;;;;;;;;;7.70;73.90;;;6.58;69.62;94948.72;4261422;33;20213;-82
2022/03/31 00:55:25;;;;;;;;;;;7.70;74.00;;;6.57;69.43;94947.13;4237778;33;20236;-82
2022/03/31 00:57:55;;;;;;;;;;;7.70;73.90;;;6.58;69.40;94948.72;4261077;33;19902;-81
2022/03/31 01:00:24;;;;;;;;;;;7.70;73.60;;;6.59;69.25;94944.13;4214336;33;19902;-82
2022/03/31 01:02:53;;;;;;;;;;;7.70;73.90;;;6.58;69.54;94937.84;4261628;33;20306;-82
2022/03/31 01:05:21;;;;;;;;;;;7.70;73.80;;;6.58;69.73;94943.28;4237668;33;20098;-82
2022/03/31 01:07:50;;;;;;;;;;;7.70;73.90;;;6.59;69.73;94949.56;4237079;33;20333;-82
2022/03/31 01:10:18;;;;;;;;;;;7.70;74.00;;;6.57;69.65;94946.28;4261784;33;19994;-83
2022/03/31 01:12:49;;;;;;;;;;;7.70;74.00;;;6.58;69.64;94939.78;4237548;33;20132;-83
2022/03/31 01:15:19;;;;;;;;;;;7.70;74.00;;;6.58;69.71;94939.78;4214369;33;19909;-82
2022/03/31 01:17:49;;;;;;;;;;;7.70;73.70;;;6.57;69.34;94946.28;4260910;33;19917;-83
2022/03/31 01:20:20;;;;;;;;;;;7.70;73.90;;;6.57;69.84;94943.56;4262533;33;20138;-83
2022/03/31 01:22:49;;;;;;;;;;;7.70;73.90;;;6.58;69.63;94942.50;4237683;33;20136;-83
2022/03/31 01:25:19;;;;;;;;;;;7.70;73.90;;;6.57;69.73;94949.84;4237835;33;19961;-83
2022/03/31 01:27:48;;;;;;;;;;;7.70;74.00;;;6.57;69.36;94940.84;4261073;33;19902;-82
2022/03/31 01:30:19;;;;;;;;;;;7.70;74.00;;;6.57;69.78;94940.84;4237492;33;19909;-82
2022/03/31 01:32:47;;;;;;;;;;;7.70;74.10;;;6.56;69.81;94940.06;4261282;33;19978;-83
2022/03/31 01:35:16;;;;;;;;;;;7.70;74.10;;;6.57;69.78;94935.41;4237667;33;20110;-83
2022/03/31 01:37:44;;;;;;;;;;;7.70;74.00;;;6.56;69.34;94939.22;4260747;33;19902;-82
2022/03/31 01:40:14;;;;;;;;;;;7.70;73.80;;;6.56;69.68;94933.78;4261580;33;20083;-83
2022/03/31 01:42:44;;;;;;;;;;;7.70;74.00;;;6.56;69.80;94931.06;4261328;33;19935;-83
2022/03/31 01:45:14;;;;;;;;;;;7.70;74.10;;;6.55;69.47;94938.44;4237626;33;19908;-82
2022/03/31 01:47:44;;;;;;;;;;;7.70;74.10;;;6.54;69.66;94922.38;4261095;33;19902;-82
2022/03/31 01:50:13;;;;;;;;;;;7.60;74.00;;;6.55;69.98;94915.84;4261685;33;19907;-82
2022/03/31 01:52:42;;;;;;;;;;;7.60;73.90;;;6.55;69.85;94921.28;4237670;33;20142;-83
2022/03/31 01:55:10;;;;;;;;;;;7.60;74.00;;;6.54;69.93;94919.66;4261622;33;19913;-83
2022/03/31 01:57:39;;;;;;;;;;;7.60;74.00;;;6.54;69.94;94927.81;4237201;33;20144;-83
2022/03/31 02:00:10;;;;;;;;;;;7.60;74.00;;;6.54;69.90;94916.94;4237651;33;20151;-83
2022/03/31 02:02:42;;;;;;;;;;;7.60;74.00;;;6.54;69.58;94919.66;4262448;33;19902;-82
2022/03/31 02:05:10;;;;;;;;;;;7.60;74.00;;;6.54;69.38;94915.03;4237681;33;19909;-83
2022/03/31 02:07:39;;;;;;;;;;;7.60;74.00;;;6.53;69.39;94924.28;4213991;33;19902;-83
2022/03/31 02:10:10;;;;;;;;;;;7.60;73.90;;;6.54;69.83;94925.09;4261856;33;19902;-82
2022/03/31 02:12:39;;;;;;;;;;;7.60;73.90;;;6.53;69.55;94923.47;4261611;33;20401;-82
2022/03/31 02:15:11;;;;;;;;;;;7.60;73.80;;;6.53;69.40;94918.03;4262855;33;20022;-82
2022/03/31 02:17:39;;;;;;;;;;;7.60;73.90;;;6.52;69.64;94911.78;4262407;33;19909;-82
2022/03/31 02:20:09;;;;;;;;;;;7.60;73.80;;;6.52;69.38;94919.13;4217094;33;20124;-83
2022/03/31 02:22:39;;;;;;;;;;;7.70;73.80;;;6.50;69.41;94903.09;4240228;33;19969;-83
2022/03/31 02:25:09;;;;;;;;;;;7.60;73.70;;;6.51;69.24;94895.75;4221710;33;19909;-83
2022/03/31 02:27:37;;;;;;;;;;;7.60;73.60;;;6.53;69.28;94901.72;4216550;33;19902;-83
2022/03/31 02:30:09;;;;;;;;;;;7.60;73.60;;;6.51;69.40;94893.03;4275566;33;19901;-82
2022/03/31 02:32:38;;;;;;;;;;;7.60;73.60;;;6.51;69.19;94890.31;4269371;33;19909;-83
2022/03/31 02:35:07;;;;;;;;;;;7.60;73.40;;;6.50;69.19;94897.66;4245546;33;20347;-83
2022/03/31 02:37:36;;;;;;;;;;;7.60;73.60;;;6.51;69.76;94887.59;4269425;33;20212;-83
2022/03/31 02:40:06;;;;;;;;;;;7.60;73.70;;;6.50;69.48;94899.56;4270525;33;20020;-82
2022/03/31 02:42:35;;;;;;;;;;;7.60;73.70;;;6.50;69.42;94891.41;4270589;33;19901;-82
2022/03/31 02:45:04;;;;;;;;;;;7.60;73.60;;;6.50;69.52;94896.84;4271200;33;19902;-83
2022/03/31 02:47:35;;;;;;;;;;;7.60;73.50;;;6.49;69.13;94887.06;4298333;33;19947;-82
2022/03/31 02:50:04;;;;;;;;;;;7.60;73.50;;;6.49;68.92;94889.78;4244878;33;20456;-82
2022/03/31 02:55:28;;;;;;;;;;;7.60;73.50;;;6.49;69.39;94873.47;4244709;33;20259;-82
2022/03/31 02:57:58;;;;;;;;;;;7.60;74.20;;;6.48;69.32;94860.97;4245427;33;20313;-83
2022/03/31 03:00:26;;;;;;;;;;;7.60;73.40;;;6.48;69.40;94860.97;4246218;33;20120;-83
2022/03/31 03:02:56;;;;;;;;;;;7.60;73.30;;;6.48;68.85;94863.69;4270297;33;20153;-82
2022/03/31 03:05:25;;;;;;;;;;;7.60;73.20;;;6.47;68.84;94856.63;4262414;33;19902;-82
2022/03/31 03:07:53;;;;;;;;;;;7.60;73.20;;;6.47;68.85;94871.00;4217666;33;20124;-82
2022/03/31 03:10:22;;;;;;;;;;;7.60;73.20;;;6.48;69.28;94866.41;4271546;33;20123;-82
2022/03/31 03:12:51;;;;;;;;;;;7.60;73.20;;;6.47;69.05;94856.63;4247014;33;19901;-83
2022/03/31 03:15:19;;;;;;;;;;;7.60;73.40;;;6.47;68.96;94860.13;4270731;33;20117;-83
2022/03/31 03:17:48;;;;;;;;;;;7.60;73.30;;;6.47;69.02;94853.91;4295923;33;19901;-82
2022/03/31 03:20:18;;;;;;;;;;;7.60;73.20;;;6.47;69.12;94864.78;4272777;33;20117;-83
2022/03/31 03:22:48;;;;;;;;;;;7.60;73.20;;;6.47;69.31;94867.50;4272118;33;19909;-83
2022/03/31 03:25:17;;;;;;;;;;;7.60;73.10;;;6.46;68.88;94858.50;4218190;33;20004;-82
2022/03/31 03:27:46;;;;;;;;;;;7.60;73.10;;;6.46;68.92;94858.50;4191795;33;20161;-82
2022/03/31 03:30:15;;;;;;;;;;;7.60;73.10;;;6.45;68.94;94863.13;4215917;33;20213;-82
2022/03/31 03:32:45;;;;;;;;;;;7.60;73.10;;;6.45;68.88;94860.41;4239816;33;19925;-83
2022/03/31 03:35:14;;;;;;;;;;;7.60;73.10;;;6.45;68.82;94860.41;4210845;33;20070;-82
2022/03/31 03:37:44;;;;;;;;;;;7.60;73.10;;;6.46;69.07;94861.22;4186557;33;20137;-82
2022/03/31 03:40:13;;;;;;;;;;;7.60;73.10;;;6.44;68.79;94856.06;4187396;33;20133;-83
2022/03/31 03:42:42;;;;;;;;;;;7.50;73.10;;;6.45;69.10;94846.81;4186961;33;20137;-82
2022/03/31 03:45:11;;;;;;;;;;;7.60;73.10;;;6.45;69.15;94844.09;4186909;33;19902;-82
2022/03/31 03:47:39;;;;;;;;;;;7.50;73.10;;;6.45;68.88;94833.25;4209575;33;20115;-82
2022/03/31 03:50:09;;;;;;;;;;;7.60;73.10;;;6.45;68.76;94835.94;4186834;33;20049;-82
2022/03/31 03:52:38;;;;;;;;;;;7.50;73.00;;;6.44;68.61;94837.03;4186787;33;19902;-82
2022/03/31 03:55:09;;;;;;;;;;;7.50;73.00;;;6.45;68.77;94835.16;4185801;33;20101;-82
2022/03/31 03:57:38;;;;;;;;;;;7.60;73.10;;;6.45;69.12;94840.59;4234062;33;19983;-82
2022/03/31 04:00:09;;;;;;;;;;;7.60;73.10;;;6.44;69.11;94833.53;4186967;33;19902;-82
2022/03/31 04:02:38;;;;;;;;;;;7.50;73.10;;;6.44;68.44;94837.03;4209770;33;19903;-82
2022/03/31 04:05:08;;;;;;;;;;;7.50;72.90;;;6.43;68.84;94829.97;4186713;33;20008;-82
2022/03/31 04:07:36;;;;;;;;;;;7.50;73.00;;;6.44;68.98;94833.53;4186211;33;19902;-82
2022/03/31 04:10:08;;;;;;;;;;;7.50;73.10;;;6.44;68.62;94818.00;4186790;33;20124;-82
2022/03/31 04:12:38;;;;;;;;;;;7.50;73.10;;;6.44;69.11;94812.56;4209791;33;19903;-82
2022/03/31 04:15:08;;;;;;;;;;;7.50;72.90;;;6.43;68.50;94810.94;4186407;33;20106;-82
2022/03/31 04:17:36;;;;;;;;;;;7.50;72.80;;;6.42;68.71;94814.75;4248666;33;19933;-82
2022/03/31 04:20:06;;;;;;;;;;;7.50;72.80;;;6.43;68.90;94818.31;4266760;33;20020;-82
2022/03/31 04:22:37;;;;;;;;;;;7.50;72.90;;;6.43;68.89;94827.25;4248422;33;20240;-82
2022/03/31 04:25:07;;;;;;;;;;;7.50;72.70;;;6.43;68.62;94815.59;4214603;33;19976;-82
2022/03/31 04:27:37;;;;;;;;;;;7.60;72.60;;;6.43;68.35;94810.94;4237860;33;20150;-83
2022/03/31 04:30:09;;;;;;;;;;;7.50;72.60;;;6.43;68.80;94810.94;4238422;33;19901;-82
2022/03/31 04:32:37;;;;;;;;;;;7.50;72.70;;;6.43;68.46;94816.38;4262319;33;20020;-82
2022/03/31 04:35:07;;;;;;;;;;;7.50;72.60;;;6.43;68.43;94819.09;4238078;33;20044;-83
2022/03/31 04:37:36;;;;;;;;;;;7.50;72.50;;;6.44;68.30;94820.72;4214558;33;20155;-82
2022/03/31 04:40:06;;;;;;;;;;;7.50;72.60;;;6.44;68.16;94807.16;4262909;33;20133;-81
2022/03/31 04:42:34;;;;;;;;;;;7.60;72.50;;;6.44;68.13;94807.16;4215202;33;20217;-82
2022/03/31 04:45:05;;;;;;;;;;;7.60;72.50;;;6.45;68.58;94807.97;4263554;33;19930;-82
2022/03/31 04:47:34;;;;;;;;;;;7.60;72.60;;;6.45;68.26;94803.34;4263413;33;19902;-82
2022/03/31 04:50:02;;;;;;;;;;;7.60;72.50;;;6.45;68.73;94800.63;4238929;33;20088;-83
2022/03/31 04:52:30;;;;;;;;;;;7.60;72.60;;;6.45;68.09;94813.41;4239151;33;19902;-83
2022/03/31 04:54:59;;;;;;;;;;;7.60;72.30;;;6.45;68.43;94814.22;4239408;33;20088;-82
2022/03/31 04:57:28;;;;;;;;;;;7.60;72.40;;;6.45;68.14;94814.22;4249490;33;19901;-82
2022/03/31 04:59:56;;;;;;;;;;;7.60;72.40;;;6.45;68.29;94807.97;4244703;33;19902;-82
2022/03/31 05:02:26;;;;;;;;;;;7.60;72.40;;;6.45;68.39;94819.66;4268837;33;20108;-83
2022/03/31 05:04:55;;;;;;;;;;;7.60;72.60;;;6.44;68.72;94828.88;4268816;33;20041;-82
2022/03/31 05:07:23;;;;;;;;;;;7.60;72.90;;;6.44;68.48;94839.75;4260658;33;19902;-82
2022/03/31 05:09:53;;;;;;;;;;;7.50;72.30;;;6.46;68.50;94834.03;4214522;33;19909;-83
2022/03/31 05:12:22;;;;;;;;;;;7.50;72.30;;;6.45;68.38;94829.72;4237966;33;20066;-82
2022/03/31 05:14:51;;;;;;;;;;;7.60;72.50;;;6.45;68.18;94829.72;4262236;33;20043;-83
2022/03/31 05:17:19;;;;;;;;;;;7.60;72.50;;;6.45;68.11;94841.41;4261616;33;20164;-82
2022/03/31 05:19:49;;;;;;;;;;;7.60;72.40;;;6.45;68.64;94848.75;4261606;33;19910;-82
2022/03/31 05:22:18;;;;;;;;;;;7.60;72.60;;;6.45;68.94;94846.81;4214329;33;19909;-82
2022/03/31 05:24:46;;;;;;;;;;;7.60;72.80;;;6.47;68.68;94851.19;4214262;33;20177;-82
2022/03/31 05:27:15;;;;;;;;;;;7.60;72.90;;;6.47;68.63;94854.69;4237288;33;20383;-82
2022/03/31 05:29:43;;;;;;;;;;;7.60;72.90;;;6.47;68.88;94851.97;4214004;33;19925;-82
2022/03/31 05:32:12;;;;;;;;;;;7.60;73.20;;;6.48;68.83;94855.53;4214566;33;20014;-82
2022/03/31 05:34:41;;;;;;;;;;;7.60;73.30;;;6.48;68.96;94860.97;4237661;33;20113;-82
2022/03/31 05:37:11;;;;;;;;;;;7.60;73.30;;;6.48;68.76;94864.47;4237253;33;19909;-82
2022/03/31 05:39:40;;;;;;;;;;;7.60;73.30;;;6.48;69.61;94867.19;4238179;33;20343;-82
2022/03/31 05:42:09;;;;;;;;;;;7.60;73.50;;;6.49;69.41;94865.31;4238511;33;20489;-82
2022/03/31 05:44:38;;;;;;;;;;;7.60;73.60;;;6.49;69.12;94868.03;4237648;33;20367;-82
2022/03/31 05:47:08;;;;;;;;;;;7.60;73.60;;;6.49;69.46;94868.03;4213639;33;19906;-82
2022/03/31 05:49:36;;;;;;;;;;;7.60;73.70;;;6.48;69.16;94874.56;4261293;33;19984;-82
2022/03/31 05:52:06;;;;;;;;;;;7.60;73.70;;;6.49;69.75;94873.47;4214782;33;20343;-82
2022/03/31 05:54:36;;;;;;;;;;;7.60;73.70;;;6.49;69.50;94859.88;4216330;33;20217;-82
2022/03/31 05:57:05;;;;;;;;;;;7.60;73.70;;;6.48;69.90;94863.69;4239402;33;19971;-82
2022/03/31 05:59:33;;;;;;;;;;;7.60;73.70;;;6.50;69.22;94856.06;4286753;33;19901;-82
2022/03/31 06:02:02;;;;;;;;;;;7.60;73.50;;;6.49;69.45;94855.25;4268649;33;19909;-82
2022/03/31 06:04:31;;;;;;;;;;;7.60;73.60;;;6.51;69.31;94854.97;4244644;33;19978;-82
2022/03/31 06:06:59;;;;;;;;;;;7.60;73.60;;;6.50;69.58;94851.44;4244099;33;20097;-82
2022/03/31 06:09:28;;;;;;;;;;;7.60;73.60;;;6.52;70.00;94856.59;4244532;33;19902;-82
2022/03/31 06:11:58;;;;;;;;;;;7.60;73.70;;;6.51;69.32;94857.69;4244514;33;20476;-82
2022/03/31 06:14:26;;;;;;;;;;;7.60;73.70;;;6.52;69.62;94856.59;4244364;33;20070;-82
2022/03/31 06:16:54;;;;;;;;;;;7.60;73.70;;;6.52;69.44;94851.16;4267647;33;19924;-82
2022/03/31 06:19:23;;;;;;;;;;;7.60;73.50;;;6.53;69.24;94855.50;4244691;33;19901;-82
2022/03/31 06:21:51;;;;;;;;;;;7.60;73.50;;;6.53;69.27;94855.50;4268527;33;20213;-81
2022/03/31 06:24:20;;;;;;;;;;;7.60;73.40;;;6.54;69.00;94859.84;4268254;33;20026;-81
2022/03/31 06:26:48;;;;;;;;;;;7.60;73.20;;;6.54;68.95;94854.41;4268058;33;19982;-82
2022/03/31 06:29:18;;;;;;;;;;;7.60;72.90;;;6.54;69.26;94852.50;4244038;33;20128;-82
2022/03/31 06:31:47;;;;;;;;;;;7.70;73.30;;;6.56;69.63;94860.38;4244270;33;19901;-82
2022/03/31 06:34:15;;;;;;;;;;;7.70;73.40;;;6.56;69.37;94849.50;4268273;33;19902;-82
2022/03/31 06:36:43;;;;;;;;;;;7.70;73.60;;;6.57;69.42;94848.41;4243787;33;20239;-82
2022/03/31 06:39:13;;;;;;;;;;;7.70;73.60;;;6.57;69.33;94853.84;4244409;33;19901;-82
2022/03/31 06:41:42;;;;;;;;;;;7.70;73.80;;;6.59;69.58;94848.94;4244361;33;19902;-83
2022/03/31 06:44:13;;;;;;;;;;;7.70;73.80;;;6.58;69.84;94853.56;4268359;33;19908;-82
2022/03/31 06:46:43;;;;;;;;;;;7.70;73.90;;;6.58;69.46;94856.28;4243918;33;20121;-82
2022/03/31 06:49:12;;;;;;;;;;;7.70;73.90;;;6.59;69.65;94862.53;4268497;33;20052;-83
2022/03/31 06:51:43;;;;;;;;;;;7.70;73.90;;;6.59;69.46;94857.09;4244664;33;20351;-82
2022/03/31 06:54:11;;;;;;;;;;;7.70;73.90;;;6.62;69.68;94844.84;4268608;33;20144;-81
2022/03/31 06:56:39;;;;;;;;;;;7.70;73.90;;;6.62;69.64;94867.44;4244112;33;20438;-81
2022/03/31 06:59:08;;;;;;;;;;;7.70;73.90;;;6.62;69.84;94861.16;4244696;33;20128;-82
2022/03/31 07:01:36;;;;;;;;;;;7.70;73.90;;;6.63;69.87;94852.75;4268502;33;20220;-82
2022/03/31 07:04:07;;;;;;;;;;;7.70;73.90;;;6.63;69.84;94851.91;4244481;33;20212;-82
2022/03/31 07:06:35;;;;;;;;;;;7.70;73.90;;;6.63;69.99;94849.19;4268501;33;20019;-82
2022/03/31 07:09:04;;;;;;;;;;;7.70;73.90;;;6.62;69.35;94853.84;4245082;33;19902;-83
2022/03/31 07:11:34;;;;;;;;;;;7.70;74.00;;;6.63;69.66;94850.03;4245185;33;19901;-82
2022/03/31 07:14:02;;;;;;;;;;;7.70;74.00;;;6.65;70.10;94842.38;4269094;33;19909;-82
2022/03/31 07:16:31;;;;;;;;;;;7.80;74.00;;;6.64;69.76;94840.78;4268586;33;20068;-83
2022/03/31 07:19:03;;;;;;;;;;;7.80;73.90;;;6.64;69.43;94854.38;4245325;33;19948;-83
2022/03/31 07:21:33;;;;;;;;;;;7.80;73.90;;;6.65;69.52;94845.09;4265921;33;19902;-83
2022/03/31 07:24:02;;;;;;;;;;;7.80;74.00;;;6.66;69.70;94860.31;4265862;33;19980;-83
2022/03/31 07:26:31;;;;;;;;;;;7.80;74.00;;;6.66;69.77;94854.09;4217431;33;19918;-82
2022/03/31 07:29:01;;;;;;;;;;;7.80;74.00;;;6.67;69.71;94859.25;4242751;33;20101;-82
2022/03/31 07:31:29;;;;;;;;;;;7.80;74.80;;;6.66;69.95;94844.00;4267056;33;20081;-82
2022/03/31 07:33:58;;;;;;;;;;;7.80;73.90;;;6.68;69.83;94847.25;4243882;33;19908;-82
2022/03/31 07:36:26;;;;;;;;;;;7.80;74.00;;;6.68;69.89;94843.75;4266757;33;19925;-82
2022/03/31 07:38:56;;;;;;;;;;;7.80;73.90;;;6.69;69.76;94835.31;4243635;33;19928;-82
2022/03/31 07:41:24;;;;;;;;;;;7.80;73.90;;;6.70;69.38;94839.66;4267290;33;20120;-82
2022/03/31 07:43:53;;;;;;;;;;;7.80;73.90;;;6.70;69.47;94836.94;4267236;33;19901;-82
2022/03/31 07:46:22;;;;;;;;;;;7.80;73.90;;;6.71;69.91;94833.13;4266794;33;19902;-83
2022/03/31 07:48:50;;;;;;;;;;;7.80;73.90;;;6.71;69.75;94827.69;4243635;33;20128;-82
2022/03/31 07:51:19;;;;;;;;;;;7.80;73.80;;;6.72;69.60;94839.34;4267336;33;19901;-82
2022/03/31 07:53:47;;;;;;;;;;;7.80;73.90;;;6.72;69.46;94840.19;4292377;33;19901;-82
2022/03/31 07:56:17;;;;;;;;;;;7.80;73.70;;;6.72;69.52;94837.47;4242835;33;19924;-82
2022/03/31 07:58:45;;;;;;;;;;;7.90;73.90;;;6.74;69.47;94840.72;4267357;33;20101;-82
2022/03/31 08:01:14;;;;;;;;;;;7.80;73.80;;;6.74;69.63;94843.44;4224687;33;19914;-82
2022/03/31 08:03:45;;;;;;;;;;;7.90;73.90;;;6.75;69.50;94845.06;4238883;33;19909;-82
2022/03/31 08:06:14;;;;;;;;;;;7.90;73.80;;;6.75;69.60;94839.63;4262428;33;20129;-83
2022/03/31 08:08:43;;;;;;;;;;;7.90;73.80;;;6.75;69.63;94842.34;4238618;33;20010;-83
2022/03/31 08:11:12;;;;;;;;;;;7.90;73.90;;;6.75;69.36;94834.19;4215080;33;19902;-83
2022/03/31 08:13:42;;;;;;;;;;;7.90;73.80;;;6.76;69.69;94835.00;4214925;33;20085;-83
2022/03/31 08:16:10;;;;;;;;;;;7.90;73.80;;;6.77;69.77;94835.81;4237207;33;20459;-84
2022/03/31 08:18:39;;;;;;;;;;;7.90;73.70;;;6.77;69.67;94835.81;4238297;33;19902;-83
2022/03/31 08:21:08;;;;;;;;;;;7.90;73.80;;;6.78;69.56;94826.56;4238332;33;20250;-83
2022/03/31 08:23:38;;;;;;;;;;;7.90;73.70;;;6.77;69.69;94820.31;4261864;33;19908;-83
2022/03/31 08:26:06;;;;;;;;;;;7.90;73.80;;;6.77;69.55;94820.31;4261865;33;19902;-83
2022/03/31 08:28:36;;;;;;;;;;;7.90;73.80;;;6.79;69.60;94825.44;4238218;33;19902;-83
2022/03/31 08:31:06;;;;;;;;;;;7.90;73.70;;;6.78;69.79;94832.81;4238354;33;20198;-83
2022/03/31 08:33:34;;;;;;;;;;;7.90;73.70;;;6.79;69.52;94833.63;4237996;33;19908;-83
2022/03/31 08:36:03;;;;;;;;;;;7.90;73.70;;;6.80;69.39;94835.25;4237944;33;20125;-83
2022/03/31 08:38:31;;;;;;;;;;;7.90;73.70;;;6.80;69.54;94837.97;4237628;33;19902;-83
2022/03/31 08:41:00;;;;;;;;;;;7.90;73.70;;;6.80;69.79;94836.06;4262145;33;19955;-83
2022/03/31 08:43:28;;;;;;;;;;;7.90;73.70;;;6.82;69.57;94841.22;4238358;33;20076;-83
2022/03/31 08:45:57;;;;;;;;;;;7.90;73.70;;;6.81;69.40;94839.59;4214852;33;20172;-83
2022/03/31 08:48:27;;;;;;;;;;;7.90;73.70;;;6.82;69.59;94841.22;4261602;33;20114;-83
2022/03/31 08:50:55;;;;;;;;;;;7.90;73.70;;;6.81;69.35;94832.25;4238289;33;20003;-83
2022/03/31 08:53:24;;;;;;;;;;;7.90;73.70;;;6.81;69.39;94837.69;4238269;33;19902;-83
2022/03/31 08:55:52;;;;;;;;;;;7.90;73.70;;;6.83;69.36;94845.56;4238146;33;19902;-83
2022/03/31 08:58:21;;;;;;;;;;;8.00;73.60;;;6.83;69.39;94843.69;4261366;33;19910;-83
2022/03/31 09:00:50;;;;;;;;;;;8.00;73.60;;;6.81;69.86;94826.00;4262125;33;19902;-83
2022/03/31 09:03:18;;;;;;;;;;;8.00;73.60;;;6.82;69.56;94827.63;4214466;33;19909;-83
2022/03/31 09:05:51;;;;;;;;;;;8.00;73.60;;;6.82;69.66;94827.63;4215348;33;20062;-83
2022/03/31 09:08:20;;;;;;;;;;;7.90;73.50;;;6.83;69.38;94827.34;4242594;33;20297;-83
2022/03/31 09:10:50;;;;;;;;;;;7.90;73.60;;;6.83;69.39;94829.25;4243129;33;19925;-83
2022/03/31 09:13:22;;;;;;;;;;;8.00;73.60;;;6.83;69.52;94821.91;4266937;33;19919;-83
2022/03/31 09:15:52;;;;;;;;;;;7.90;73.50;;;6.85;69.72;94821.63;4242790;33;20124;-83
2022/03/31 09:18:21;;;;;;;;;;;7.90;73.60;;;6.85;69.34;94805.31;4266708;33;20031;-83
2022/03/31 09:20:54;;;;;;;;;;;8.00;73.60;;;6.84;69.31;94804.47;4243577;33;19901;-83
2022/03/31 09:23:24;;;;;;;;;;;8.00;73.50;;;6.85;69.56;94797.94;4243251;33;20065;-83
2022/03/31 09:25:53;;;;;;;;;;;8.00;73.40;;;6.86;69.34;94796.84;4243141;33;20045;-84
2022/03/31 09:28:23;;;;;;;;;;;8.00;73.50;;;6.87;69.38;94792.25;4245281;33;19908;-83
2022/03/31 09:30:53;;;;;;;;;;;8.00;73.40;;;6.86;69.62;94788.69;4245940;33;20209;-83
2022/03/31 09:34:04;;;;;;;;;;;8.00;73.40;;;6.89;69.25;94787.34;4294909;33;19918;-83
2022/03/31 09:36:34;;;;;;;;;;;8.00;73.50;;;6.89;69.34;94784.63;4245357;33;19908;-83
2022/03/31 09:39:05;;;;;;;;;;;8.00;73.40;;;6.92;69.58;94789.47;4245825;33;20412;-84
2022/03/31 09:41:34;;;;;;;;;;;8.00;73.40;;;6.92;69.32;94778.59;4269521;33;20130;-83
2022/03/31 09:44:05;;;;;;;;;;;8.10;73.50;;;6.94;69.28;94787.28;4269834;33;20041;-83
2022/03/31 09:46:35;;;;;;;;;;;8.10;73.40;;;6.95;69.08;94793.56;4243305;33;19917;-83
2022/03/31 09:49:13;;;;;;;;;;;8.10;73.40;;;6.95;69.29;94788.91;4241387;33;19909;-83
2022/03/31 09:51:44;;;;;;;;;;;8.10;74.10;;;6.97;69.05;94805.78;4241013;33;19986;-84
2022/03/31 09:54:12;;;;;;;;;;;8.10;73.20;;;6.97;69.03;94794.09;4241121;33;20029;-83
2022/03/31 09:56:41;;;;;;;;;;;8.10;73.20;;;6.98;69.07;94798.41;4217406;33;20117;-83
2022/03/31 09:59:11;;;;;;;;;;;8.10;73.20;;;6.97;69.43;94802.25;4266326;33;20015;-83
2022/03/31 10:01:39;;;;;;;;;;;8.10;73.20;;;6.96;69.34;94809.59;4241916;33;19909;-83
2022/03/31 10:04:10;;;;;;;;;;;8.10;73.20;;;6.97;69.46;94802.25;4265360;33;20217;-83
2022/03/31 10:06:40;;;;;;;;;;;8.10;73.20;;;6.97;69.22;94808.50;4265165;33;20221;-83
2022/03/31 10:09:10;;;;;;;;;;;8.10;73.20;;;6.97;69.13;94804.97;4294879;33;19908;-83
2022/03/31 10:11:40;;;;;;;;;;;8.10;73.20;;;6.97;69.55;94805.78;4247955;33;19925;-80
2022/03/31 10:14:20;;;;;;;;;;;8.10;73.20;;;6.97;69.45;94802.25;4295264;33;19964;-81
2022/03/31 10:16:52;;;;;;;;;;;8.10;73.20;;;6.97;69.15;94797.59;4245325;33;19974;-80
2022/03/31 10:19:29;;;;;;;;;;;8.10;73.30;;;6.97;69.21;94788.66;4269361;33;19908;-81
2022/03/31 10:22:02;;;;;;;;;;;8.10;73.30;;;6.97;68.69;94784.00;4269640;33;19901;-80
2022/03/31 10:24:47;;;;;;;;;;;8.10;73.30;;;6.97;69.14;94764.97;4246065;33;20157;-80
2022/03/31 10:27:25;;;;;;;;;;;8.10;73.30;;;6.98;69.75;94768.47;4269629;33;19901;-83
2022/03/31 10:29:54;;;;;;;;;;;8.10;73.30;;;6.99;69.27;94770.09;4245710;33;19909;-83
2022/03/31 10:32:31;;;;;;;;;;;8.10;73.20;;;6.98;68.93;94763.88;4245803;33;20243;-84
2022/03/31 10:35:00;;;;;;;;;;;8.10;73.20;;;6.98;68.77;94763.88;4245728;33;19964;-83
2022/03/31 10:37:34;;;;;;;;;;;8.10;73.30;;;6.98;69.49;94761.16;4245147;33;20149;-83
2022/03/31 10:40:07;;;;;;;;;;;8.10;73.20;;;7.00;69.04;94758.97;4246284;33;19902;-83
2022/03/31 10:42:35;;;;;;;;;;;8.10;73.20;;;7.00;69.41;94753.50;4246316;33;19951;-83
2022/03/31 10:45:12;;;;;;;;;;;8.20;73.20;;;7.01;69.06;94740.72;4270027;33;20134;-83
2022/03/31 10:47:41;;;;;;;;;;;8.10;73.20;;;7.02;69.37;94726.84;4266667;33;20192;-83
2022/03/31 10:50:11;;;;;;;;;;;8.20;73.20;;;7.04;69.33;94716.47;4241508;33;20115;-83
2022/03/31 10:52:39;;;;;;;;;;;8.20;73.10;;;7.05;69.06;94712.66;4241536;33;20471;-83
2022/03/31 10:55:14;;;;;;;;;;;8.20;73.20;;;7.07;68.95;94709.66;4217110;33;20062;-83
2022/03/31 10:57:44;;;;;;;;;;;8.20;73.20;;;7.09;68.87;94703.91;4263027;33;20159;-81
2022/03/31 11:00:15;;;;;;;;;;;8.20;73.10;;;7.11;68.76;94699.81;4263469;33;20136;-80
2022/03/31 11:02:45;;;;;;;;;;;8.20;73.10;;;7.14;69.18;94693.00;4240053;33;20033;-83
2022/03/31 11:05:14;;;;;;;;;;;8.30;73.10;;;7.16;68.95;94679.91;4265213;33;20062;-83
2022/03/31 11:07:43;;;;;;;;;;;8.30;72.90;;;7.17;68.86;94670.63;4241549;33;19902;-81
2022/03/31 11:10:13;;;;;;;;;;;8.30;72.90;;;7.19;68.71;94668.44;4265446;33;19902;-81
2022/03/31 11:12:42;;;;;;;;;;;8.30;72.90;;;7.19;68.76;94674.72;4266129;33;19902;-81
2022/03/31 11:15:12;;;;;;;;;;;8.30;72.80;;;7.21;68.77;94672.53;4242117;33;19909;-80
2022/03/31 11:17:41;;;;;;;;;;;8.30;72.70;;;7.22;68.05;94676.03;4218032;33;19901;-81
2022/03/31 11:20:17;;;;;;;;;;;8.40;72.60;;;7.20;68.28;94668.19;4242286;33;19910;-81
2022/03/31 11:22:49;;;;;;;;;;;8.40;72.60;;;7.22;69.07;94667.88;4265376;33;20141;-81
2022/03/31 11:25:20;;;;;;;;;;;8.40;72.60;;;7.22;68.79;94662.44;4293768;33;20083;-81
2022/03/31 11:27:49;;;;;;;;;;;8.40;72.80;;;7.23;68.33;94650.44;4246240;33;19908;-81
2022/03/31 11:30:20;;;;;;;;;;;8.40;72.70;;;7.25;68.61;94645.53;4270419;33;19938;-82
2022/03/31 11:32:51;;;;;;;;;;;8.40;72.60;;;7.26;68.35;94630.81;4246573;33;20232;-82
2022/03/31 11:35:22;;;;;;;;;;;8.40;72.60;;;7.27;68.97;94626.19;4270254;33;20403;-82
2022/03/31 11:37:51;;;;;;;;;;;8.40;72.50;;;7.27;68.43;94621.56;4269864;33;20354;-82
2022/03/31 11:40:22;;;;;;;;;;;8.40;72.50;;;7.28;68.07;94611.47;4246455;33;19992;-82
2022/03/31 11:42:53;;;;;;;;;;;8.40;72.40;;;7.30;68.26;94615.53;4270938;33;19909;-81
2022/03/31 11:45:30;;;;;;;;;;;8.40;72.40;;;7.30;68.62;94620.16;4295925;33;19901;-81
2022/03/31 11:48:01;;;;;;;;;;;8.50;72.40;;;7.31;68.81;94611.69;4271149;33;20047;-81